<?xml version="1.0" encoding="utf-8"?>
<gpx xmlns:xsi="http://www.w3.org/2001/XMLSchema-instance" xmlns:xsd="http://www.w3.org/2001/XMLSchema" version="1.1" creator="Shapelink.com" xmlns="http://www.topografix.com/GPX/1/1" xmlns:gpxtpx="http://www.garmin.com/xmlschemas/TrackPointExtension/v1">
  <metadata>
    <name>Övrigt 1.55 km, 2019-04-15</name>
    <desc></desc>
    <author><name>Marian Moron</name></author> 
    <time>2019-04-15T21:14:40Z</time>
  </metadata>
  <trk>
    <name>Övrigt 1.55 km, 2019-04-15</name>
    <trkseg>
      <trkpt lat="51.229883875907" lon="4.458031196876">
        <ele>0</ele>
        <time>2019-04-15T21:14:40Z</time>
      </trkpt>
      <trkpt lat="51.229941627198" lon="4.458377285527">
        <ele>0</ele>
        <time>2019-04-15T21:15:19Z</time>
      </trkpt>
      <trkpt lat="51.229988230562" lon="4.458860082967">
        <ele>0</ele>
        <time>2019-04-15T21:15:45Z</time>
      </trkpt>
      <trkpt lat="51.230096021796" lon="4.459021518361">
        <ele>0</ele>
        <time>2019-04-15T21:16:02Z</time>
      </trkpt>
      <trkpt lat="51.230490222553" lon="4.459061080929">
        <ele>0.4</ele>
        <time>2019-04-15T21:16:48Z</time>
      </trkpt>
      <trkpt lat="51.230524672162" lon="4.459360314759">
        <ele>0</ele>
        <time>2019-04-15T21:17:19Z</time>
      </trkpt>
      <trkpt lat="51.230555266097" lon="4.45967287581">
        <ele>0</ele>
        <time>2019-04-15T21:17:44Z</time>
      </trkpt>
      <trkpt lat="51.230694573275" lon="4.459751749489">
        <ele>0</ele>
        <time>2019-04-15T21:18:03Z</time>
      </trkpt>
      <trkpt lat="51.230805214355" lon="4.459716880785">
        <ele>0</ele>
        <time>2019-04-15T21:18:23Z</time>
      </trkpt>
      <trkpt lat="51.231246605209" lon="4.459652843069">
        <ele>3.8</ele>
        <time>2019-04-15T21:18:58Z</time>
      </trkpt>
      <trkpt lat="51.231329586019" lon="4.459636498364">
        <ele>4</ele>
        <time>2019-04-15T21:19:19Z</time>
      </trkpt>
      <trkpt lat="51.231434192131" lon="4.459630798672">
        <ele>3.4</ele>
        <time>2019-04-15T21:19:32Z</time>
      </trkpt>
      <trkpt lat="51.231695288316" lon="4.459580842548">
        <ele>0</ele>
        <time>2019-04-15T21:20:13Z</time>
      </trkpt>
      <trkpt lat="51.231814143658" lon="4.4596401864">
        <ele>0</ele>
        <time>2019-04-15T21:20:35Z</time>
      </trkpt>
      <trkpt lat="51.231832500019" lon="4.459770273488">
        <ele>0</ele>
        <time>2019-04-15T21:21:00Z</time>
      </trkpt>
      <trkpt lat="51.231958396157" lon="4.460435293434">
        <ele>0</ele>
        <time>2019-04-15T21:22:02Z</time>
      </trkpt>
      <trkpt lat="51.231960910727" lon="4.460457086374">
        <ele>0</ele>
        <time>2019-04-15T21:22:03Z</time>
      </trkpt>
      <trkpt lat="51.232135170428" lon="4.461138786301">
        <ele>0</ele>
        <time>2019-04-15T21:22:33Z</time>
      </trkpt>
      <trkpt lat="51.232200046334" lon="4.461662655051">
        <ele>0</ele>
        <time>2019-04-15T21:22:54Z</time>
      </trkpt>
      <trkpt lat="51.232186048561" lon="4.461685621457">
        <ele>5.6</ele>
        <time>2019-04-15T21:23:09Z</time>
      </trkpt>
      <trkpt lat="51.232301215867" lon="4.462219045573">
        <ele>0</ele>
        <time>2019-04-15T21:23:32Z</time>
      </trkpt>
      <trkpt lat="51.232300796772" lon="4.462307055523">
        <ele>0</ele>
        <time>2019-04-15T21:23:38Z</time>
      </trkpt>
      <trkpt lat="51.232160567585" lon="4.462834779947">
        <ele>1.6</ele>
        <time>2019-04-15T21:24:10Z</time>
      </trkpt>
      <trkpt lat="51.232033246524" lon="4.46330559127">
        <ele>0.6</ele>
        <time>2019-04-15T21:24:29Z</time>
      </trkpt>
      <trkpt lat="51.231975914328" lon="4.463499716074">
        <ele>0</ele>
        <time>2019-04-15T21:24:40Z</time>
      </trkpt>
      <trkpt lat="51.231655893386" lon="4.463487897595">
        <ele>3.4</ele>
        <time>2019-04-15T21:25:16Z</time>
      </trkpt>
      <trkpt lat="51.231379290686" lon="4.463224035383">
        <ele>0.4</ele>
        <time>2019-04-15T21:25:47Z</time>
      </trkpt>
      <trkpt lat="51.231366969293" lon="4.463129319913">
        <ele>0</ele>
        <time>2019-04-15T21:25:53Z</time>
      </trkpt>
      <trkpt lat="51.23136805894" lon="4.463045081818">
        <ele>0</ele>
        <time>2019-04-15T21:26:00Z</time>
      </trkpt>
      <trkpt lat="51.231167815349" lon="4.462423563933">
        <ele>0</ele>
        <time>2019-04-15T21:26:43Z</time>
      </trkpt>
      <trkpt lat="51.231063293056" lon="4.46178846737">
        <ele>0</ele>
        <time>2019-04-15T21:27:30Z</time>
      </trkpt>
      <trkpt lat="51.230945108266" lon="4.461474397577">
        <ele>0</ele>
        <time>2019-04-15T21:27:54Z</time>
      </trkpt>
      <trkpt lat="51.230757186068" lon="4.460823794499">
        <ele>0</ele>
        <time>2019-04-15T21:28:36Z</time>
      </trkpt>
      <trkpt lat="51.230685017909" lon="4.460137484527">
        <ele>0</ele>
        <time>2019-04-15T21:29:29Z</time>
      </trkpt>
      <trkpt lat="51.230633301586" lon="4.460281317931">
        <ele>0</ele>
        <time>2019-04-15T21:30:29Z</time>
      </trkpt>
      <trkpt lat="51.230675127267" lon="4.460701251121">
        <ele>0</ele>
        <time>2019-04-15T21:31:17Z</time>
      </trkpt>
      <trkpt lat="51.230530371854" lon="4.460765456475">
        <ele>0</ele>
        <time>2019-04-15T21:31:42Z</time>
      </trkpt>
      <trkpt lat="51.230076491969" lon="4.460845419801">
        <ele>12.2</ele>
        <time>2019-04-15T21:32:20Z</time>
      </trkpt>
      <trkpt lat="51.229882199527" lon="4.460910379526">
        <ele>14.8</ele>
        <time>2019-04-15T21:32:43Z</time>
      </trkpt>
      <trkpt lat="51.229722859608" lon="4.460938039796">
        <ele>20.2</ele>
        <time>2019-04-15T21:33:01Z</time>
      </trkpt>
      <trkpt lat="51.229671478561" lon="4.460955055053">
        <ele>18</ele>
        <time>2019-04-15T21:33:10Z</time>
      </trkpt>
      <trkpt lat="51.229647590146" lon="4.460954300682">
        <ele>16.6</ele>
        <time>2019-04-15T21:33:13Z</time>
      </trkpt>
      <trkpt lat="51.22942764909" lon="4.460864027619">
        <ele>7.6</ele>
        <time>2019-04-15T21:34:03Z</time>
      </trkpt>
      <trkpt lat="51.229130510735" lon="4.460525063583">
        <ele>11.4</ele>
        <time>2019-04-15T21:34:45Z</time>
      </trkpt>
      <trkpt lat="51.228847537791" lon="4.460437137452">
        <ele>12.8</ele>
        <time>2019-04-15T21:35:39Z</time>
      </trkpt>
      <trkpt lat="51.228782997161" lon="4.4602688289">
        <ele>10.4</ele>
        <time>2019-04-15T21:35:56Z</time>
      </trkpt>
      <trkpt lat="51.228646372191" lon="4.459544716559">
        <ele>0.6</ele>
        <time>2019-04-15T21:36:41Z</time>
      </trkpt>
      <trkpt lat="51.228603373044" lon="4.459317147974">
        <ele>1</ele>
        <time>2019-04-15T21:36:56Z</time>
      </trkpt>
      <trkpt lat="51.228528355039" lon="4.459060075101">
        <ele>0.6</ele>
        <time>2019-04-15T21:37:11Z</time>
      </trkpt>
      <trkpt lat="51.228536234025" lon="4.458981788155">
        <ele>0</ele>
        <time>2019-04-15T21:37:15Z</time>
      </trkpt>
      <trkpt lat="51.22853665312" lon="4.458775509596">
        <ele>0</ele>
        <time>2019-04-15T21:37:31Z</time>
      </trkpt>
      <trkpt lat="51.228528941772" lon="4.458337387683">
        <ele>0</ele>
        <time>2019-04-15T21:37:55Z</time>
      </trkpt>
      <trkpt lat="51.228942001804" lon="4.458089451081">
        <ele>9.2</ele>
        <time>2019-04-15T21:38:40Z</time>
      </trkpt>
      <trkpt lat="51.229393367119" lon="4.458041506613">
        <ele>19.2</ele>
        <time>2019-04-15T21:39:15Z</time>
      </trkpt>
      <trkpt lat="51.229466038192" lon="4.457986772806">
        <ele>16</ele>
        <time>2019-04-15T21:39:25Z</time>
      </trkpt>
      <trkpt lat="51.229560166929" lon="4.457957184699">
        <ele>12.8</ele>
        <time>2019-04-15T21:39:43Z</time>
      </trkpt>
      <trkpt lat="51.229666700878" lon="4.457906222747">
        <ele>10.2</ele>
        <time>2019-04-15T21:40:24Z</time>
      </trkpt>
    </trkseg>
  </trk>
</gpx>